sensor_id;sensor_type;location;lat;lon;timestamp;pressure;altitude;pressure_sealevel;temperature;humidity
21359;BME280;13506;50.852;20.632;2022-10-16T00:00:57;98468.41;;;16.13;76.24
21359;BME280;13506;50.852;20.632;2022-10-16T00:03:36;98472.91;;;16.22;76.14
21359;BME280;13506;50.852;20.632;2022-10-16T00:06:05;98477.22;;;16.23;76.08
21359;BME280;13506;50.852;20.632;2022-10-16T00:08:33;98472.22;;;16.09;76.88
21359;BME280;13506;50.852;20.632;2022-10-16T00:11:02;98467.81;;;16.10;76.69
21359;BME280;13506;50.852;20.632;2022-10-16T00:13:30;98483.16;;;16.25;75.70
21359;BME280;13506;50.852;20.632;2022-10-16T00:16:00;98484.09;;;16.36;75.68
21359;BME280;13506;50.852;20.632;2022-10-16T00:18:29;98478.63;;;16.39;75.32
21359;BME280;13506;50.852;20.632;2022-10-16T00:21:02;98483.50;;;16.43;75.59
21359;BME280;13506;50.852;20.632;2022-10-16T00:23:30;98487.22;;;16.41;74.83
21359;BME280;13506;50.852;20.632;2022-10-16T00:26:00;98487.66;;;16.46;74.41
21359;BME280;13506;50.852;20.632;2022-10-16T00:28:28;98486.84;;;16.45;75.04
21359;BME280;13506;50.852;20.632;2022-10-16T00:30:57;98487.59;;;16.36;74.58
21359;BME280;13506;50.852;20.632;2022-10-16T00:33:24;98493.06;;;16.33;74.43
21359;BME280;13506;50.852;20.632;2022-10-16T00:35:52;98497.75;;;16.18;75.57
21359;BME280;13506;50.852;20.632;2022-10-16T00:38:22;98490.91;;;16.27;75.29
21359;BME280;13506;50.852;20.632;2022-10-16T00:40:50;98501.91;;;16.21;76.00
21359;BME280;13506;50.852;20.632;2022-10-16T00:43:37;98495.22;;;16.17;76.40
21359;BME280;13506;50.852;20.632;2022-10-16T00:46:14;98500.94;;;16.11;77.27
21359;BME280;13506;50.852;20.632;2022-10-16T00:48:46;98508.59;;;16.14;76.52
21359;BME280;13506;50.852;20.632;2022-10-16T00:51:19;98508.50;;;16.15;76.35
21359;BME280;13506;50.852;20.632;2022-10-16T00:53:50;98511.84;;;16.17;76.33
21359;BME280;13506;50.852;20.632;2022-10-16T00:56:19;98509.22;;;16.17;76.32
21359;BME280;13506;50.852;20.632;2022-10-16T00:58:46;98510.97;;;16.17;76.25
21359;BME280;13506;50.852;20.632;2022-10-16T01:01:14;98510.50;;;16.12;76.24
21359;BME280;13506;50.852;20.632;2022-10-16T01:03:42;98505.84;;;16.04;77.41
21359;BME280;13506;50.852;20.632;2022-10-16T01:06:23;98509.69;;;16.11;77.08
21359;BME280;13506;50.852;20.632;2022-10-16T01:09:06;98509.44;;;16.03;77.06
21359;BME280;13506;50.852;20.632;2022-10-16T01:11:41;98504.19;;;16.03;77.17
21359;BME280;13506;50.852;20.632;2022-10-16T01:14:19;98507.03;;;16.00;76.76
21359;BME280;13506;50.852;20.632;2022-10-16T01:16:55;98502.97;;;15.96;77.18
21359;BME280;13506;50.852;20.632;2022-10-16T01:19:41;98496.69;;;15.98;76.92
21359;BME280;13506;50.852;20.632;2022-10-16T01:22:11;98499.78;;;16.03;76.31
21359;BME280;13506;50.852;20.632;2022-10-16T01:24:45;98504.91;;;16.05;76.43
21359;BME280;13506;50.852;20.632;2022-10-16T01:27:22;98500.84;;;16.01;76.21
21359;BME280;13506;50.852;20.632;2022-10-16T01:29:54;98493.44;;;16.06;76.02
21359;BME280;13506;50.852;20.632;2022-10-16T01:32:30;98503.38;;;16.02;76.06
21359;BME280;13506;50.852;20.632;2022-10-16T01:35:03;98500.84;;;16.01;76.24
21359;BME280;13506;50.852;20.632;2022-10-16T01:37:38;98501.31;;;16.06;76.46
21359;BME280;13506;50.852;20.632;2022-10-16T01:40:12;98504.41;;;16.00;76.90
21359;BME280;13506;50.852;20.632;2022-10-16T01:42:46;98506.56;;;15.95;77.82
21359;BME280;13506;50.852;20.632;2022-10-16T01:45:17;98513.47;;;15.96;77.84
21359;BME280;13506;50.852;20.632;2022-10-16T01:47:47;98512.53;;;15.97;77.75
21359;BME280;13506;50.852;20.632;2022-10-16T01:50:19;98517.91;;;15.73;77.52
21359;BME280;13506;50.852;20.632;2022-10-16T01:52:51;98520.38;;;15.74;77.63
21359;BME280;13506;50.852;20.632;2022-10-16T01:55:24;98513.94;;;15.78;77.68
21359;BME280;13506;50.852;20.632;2022-10-16T01:57:55;98505.72;;;15.83;77.37
21359;BME280;13506;50.852;20.632;2022-10-16T02:00:25;98508.88;;;15.64;78.34
21359;BME280;13506;50.852;20.632;2022-10-16T02:02:55;98512.47;;;15.63;78.70
21359;BME280;13506;50.852;20.632;2022-10-16T02:05:28;98519.72;;;15.59;78.29
21359;BME280;13506;50.852;20.632;2022-10-16T02:07:58;98515.72;;;15.66;78.08
21359;BME280;13506;50.852;20.632;2022-10-16T02:10:26;98512.22;;;15.43;78.06
21359;BME280;13506;50.852;20.632;2022-10-16T02:13:03;98518.66;;;15.51;78.51
21359;BME280;13506;50.852;20.632;2022-10-16T02:15:32;98511.03;;;15.59;77.91
21359;BME280;13506;50.852;20.632;2022-10-16T02:18:00;98525.47;;;15.64;77.75
21359;BME280;13506;50.852;20.632;2022-10-16T02:20:34;98527.59;;;15.59;78.30
21359;BME280;13506;50.852;20.632;2022-10-16T02:23:09;98522.56;;;15.45;79.09
21359;BME280;13506;50.852;20.632;2022-10-16T02:25:42;98527.69;;;15.46;79.26
21359;BME280;13506;50.852;20.632;2022-10-16T02:28:17;98528.91;;;15.54;78.83
21359;BME280;13506;50.852;20.632;2022-10-16T02:30:51;98530.13;;;15.61;78.21
21359;BME280;13506;50.852;20.632;2022-10-16T02:33:24;98520.19;;;15.53;78.76
21359;BME280;13506;50.852;20.632;2022-10-16T02:35:54;98516.53;;;15.56;78.82
21359;BME280;13506;50.852;20.632;2022-10-16T02:38:23;98514.84;;;15.43;79.27
21359;BME280;13506;50.852;20.632;2022-10-16T02:40:52;98520.00;;;15.67;78.49
21359;BME280;13506;50.852;20.632;2022-10-16T02:43:21;98521.53;;;15.23;80.56
21359;BME280;13506;50.852;20.632;2022-10-16T02:45:50;98515.31;;;15.48;79.06
21359;BME280;13506;50.852;20.632;2022-10-16T02:48:18;98531.19;;;15.58;78.67
21359;BME280;13506;50.852;20.632;2022-10-16T02:50:46;98516.19;;;15.60;78.62
21359;BME280;13506;50.852;20.632;2022-10-16T02:53:13;98531.31;;;15.68;78.16
21359;BME280;13506;50.852;20.632;2022-10-16T02:55:41;98524.81;;;15.38;79.68
21359;BME280;13506;50.852;20.632;2022-10-16T02:58:09;98522.97;;;15.52;78.56
21359;BME280;13506;50.852;20.632;2022-10-16T03:00:38;98523.78;;;15.63;77.89
21359;BME280;13506;50.852;20.632;2022-10-16T03:03:06;98536.44;;;15.58;78.17
21359;BME280;13506;50.852;20.632;2022-10-16T03:05:33;98533.47;;;15.63;78.07
21359;BME280;13506;50.852;20.632;2022-10-16T03:08:01;98532.38;;;15.65;77.71
21359;BME280;13506;50.852;20.632;2022-10-16T03:10:29;98524.41;;;15.67;77.43
21359;BME280;13506;50.852;20.632;2022-10-16T03:12:57;98531.75;;;15.51;78.34
21359;BME280;13506;50.852;20.632;2022-10-16T03:15:24;98532.25;;;15.56;77.83
21359;BME280;13506;50.852;20.632;2022-10-16T03:17:57;98524.50;;;15.54;77.55
21359;BME280;13506;50.852;20.632;2022-10-16T03:20:26;98525.47;;;15.64;77.21
21359;BME280;13506;50.852;20.632;2022-10-16T03:22:53;98537.25;;;15.59;77.31
21359;BME280;13506;50.852;20.632;2022-10-16T03:25:21;98531.28;;;15.57;78.21
21359;BME280;13506;50.852;20.632;2022-10-16T03:27:49;98534.41;;;15.62;77.60
21359;BME280;13506;50.852;20.632;2022-10-16T03:30:16;98537.00;;;15.62;78.06
21359;BME280;13506;50.852;20.632;2022-10-16T03:32:45;98553.25;;;15.56;78.27
21359;BME280;13506;50.852;20.632;2022-10-16T03:35:14;98548.72;;;15.58;78.26
21359;BME280;13506;50.852;20.632;2022-10-16T03:37:42;98557.63;;;15.55;78.97
21359;BME280;13506;50.852;20.632;2022-10-16T03:40:10;98566.34;;;15.56;78.49
21359;BME280;13506;50.852;20.632;2022-10-16T03:42:38;98569.69;;;15.58;79.02
21359;BME280;13506;50.852;20.632;2022-10-16T03:45:06;98565.38;;;15.57;78.96
21359;BME280;13506;50.852;20.632;2022-10-16T03:47:34;98564.31;;;15.59;79.21
21359;BME280;13506;50.852;20.632;2022-10-16T03:50:02;98586.13;;;15.60;79.30
21359;BME280;13506;50.852;20.632;2022-10-16T03:52:32;98574.88;;;15.46;80.15
21359;BME280;13506;50.852;20.632;2022-10-16T03:55:00;98589.16;;;15.42;80.81
21359;BME280;13506;50.852;20.632;2022-10-16T03:57:28;98578.22;;;15.48;80.11
21359;BME280;13506;50.852;20.632;2022-10-16T03:59:56;98585.38;;;15.46;80.10
21359;BME280;13506;50.852;20.632;2022-10-16T04:02:23;98572.78;;;15.52;80.32
21359;BME280;13506;50.852;20.632;2022-10-16T04:04:51;98576.56;;;15.47;80.79
21359;BME280;13506;50.852;20.632;2022-10-16T04:07:19;98574.16;;;15.44;81.04
21359;BME280;13506;50.852;20.632;2022-10-16T04:09:48;98579.28;;;15.35;81.60
21359;BME280;13506;50.852;20.632;2022-10-16T04:12:18;98586.47;;;15.20;82.96
21359;BME280;13506;50.852;20.632;2022-10-16T04:14:46;98587.94;;;15.24;82.46
21359;BME280;13506;50.852;20.632;2022-10-16T04:17:13;98593.88;;;15.26;82.29
21359;BME280;13506;50.852;20.632;2022-10-16T04:19:41;98595.31;;;15.30;82.36
21359;BME280;13506;50.852;20.632;2022-10-16T04:22:10;98604.03;;;15.31;82.28
21359;BME280;13506;50.852;20.632;2022-10-16T04:24:37;98600.78;;;15.27;82.47
21359;BME280;13506;50.852;20.632;2022-10-16T04:27:06;98604.34;;;15.26;82.67
21359;BME280;13506;50.852;20.632;2022-10-16T04:29:34;98603.31;;;15.29;82.55
21359;BME280;13506;50.852;20.632;2022-10-16T04:32:02;98597.34;;;15.26;82.69
21359;BME280;13506;50.852;20.632;2022-10-16T04:34:30;98594.03;;;15.36;82.59
21359;BME280;13506;50.852;20.632;2022-10-16T04:36:58;98596.66;;;15.36;82.63
21359;BME280;13506;50.852;20.632;2022-10-16T04:39:25;98591.97;;;15.28;82.93
21359;BME280;13506;50.852;20.632;2022-10-16T04:41:53;98595.31;;;15.30;82.68
21359;BME280;13506;50.852;20.632;2022-10-16T04:44:22;98597.44;;;15.25;83.08
21359;BME280;13506;50.852;20.632;2022-10-16T04:46:51;98596.75;;;15.34;82.59
21359;BME280;13506;50.852;20.632;2022-10-16T04:49:19;98597.28;;;15.39;82.27
21359;BME280;13506;50.852;20.632;2022-10-16T04:51:47;98597.63;;;15.35;82.87
21359;BME280;13506;50.852;20.632;2022-10-16T04:54:15;98583.81;;;15.44;81.90
21359;BME280;13506;50.852;20.632;2022-10-16T04:56:43;98602.19;;;15.44;81.92
21359;BME280;13506;50.852;20.632;2022-10-16T04:59:14;98590.41;;;15.50;81.39
21359;BME280;13506;50.852;20.632;2022-10-16T05:01:44;98600.44;;;15.56;81.36
21359;BME280;13506;50.852;20.632;2022-10-16T05:04:12;98603.28;;;15.53;81.36
21359;BME280;13506;50.852;20.632;2022-10-16T05:06:41;98607.19;;;15.47;81.45
21359;BME280;13506;50.852;20.632;2022-10-16T05:09:09;98598.31;;;15.61;81.31
21359;BME280;13506;50.852;20.632;2022-10-16T05:11:38;98602.56;;;15.62;81.29
21359;BME280;13506;50.852;20.632;2022-10-16T05:14:05;98613.31;;;15.59;81.29
21359;BME280;13506;50.852;20.632;2022-10-16T05:16:33;98610.00;;;15.68;80.75
21359;BME280;13506;50.852;20.632;2022-10-16T05:19:03;98609.56;;;15.74;80.87
21359;BME280;13506;50.852;20.632;2022-10-16T05:21:31;98615.19;;;15.81;80.25
21359;BME280;13506;50.852;20.632;2022-10-16T05:23:59;98617.81;;;15.81;80.23
21359;BME280;13506;50.852;20.632;2022-10-16T05:26:27;98620.31;;;15.82;80.07
21359;BME280;13506;50.852;20.632;2022-10-16T05:28:54;98616.88;;;15.82;80.21
21359;BME280;13506;50.852;20.632;2022-10-16T05:31:22;98608.19;;;15.81;80.40
21359;BME280;13506;50.852;20.632;2022-10-16T05:33:50;98605.28;;;15.73;80.82
21359;BME280;13506;50.852;20.632;2022-10-16T05:36:20;98608.75;;;15.74;80.80
21359;BME280;13506;50.852;20.632;2022-10-16T05:38:51;98614.13;;;15.83;80.49
21359;BME280;13506;50.852;20.632;2022-10-16T05:41:20;98610.81;;;15.81;80.36
21359;BME280;13506;50.852;20.632;2022-10-16T05:43:48;98615.06;;;15.82;80.19
21359;BME280;13506;50.852;20.632;2022-10-16T05:46:16;98621.13;;;15.72;81.17
21359;BME280;13506;50.852;20.632;2022-10-16T05:48:44;98625.09;;;15.77;80.90
21359;BME280;13506;50.852;20.632;2022-10-16T05:51:14;98635.72;;;15.87;80.49
21359;BME280;13506;50.852;20.632;2022-10-16T05:53:43;98626.91;;;15.88;80.50
21359;BME280;13506;50.852;20.632;2022-10-16T05:56:11;98627.50;;;15.92;80.42
21359;BME280;13506;50.852;20.632;2022-10-16T05:58:39;98635.25;;;15.93;80.58
21359;BME280;13506;50.852;20.632;2022-10-16T06:01:11;98624.75;;;15.93;80.34
21359;BME280;13506;50.852;20.632;2022-10-16T06:03:39;98640.72;;;15.55;83.26
21359;BME280;13506;50.852;20.632;2022-10-16T06:06:09;98649.31;;;15.57;83.30
21359;BME280;13506;50.852;20.632;2022-10-16T06:08:37;98651.53;;;15.74;82.55
21359;BME280;13506;50.852;20.632;2022-10-16T06:11:08;98651.66;;;16.19;80.51
21359;BME280;13506;50.852;20.632;2022-10-16T06:13:36;98647.50;;;16.28;79.08
21359;BME280;13506;50.852;20.632;2022-10-16T06:16:06;98654.31;;;16.42;78.49
21359;BME280;13506;50.852;20.632;2022-10-16T06:18:34;98651.19;;;16.59;78.09
21359;BME280;13506;50.852;20.632;2022-10-16T06:21:08;98655.91;;;17.98;74.56
21359;BME280;13506;50.852;20.632;2022-10-16T06:23:36;98661.63;;;19.65;66.70
21359;BME280;13506;50.852;20.632;2022-10-16T06:26:10;98662.13;;;21.02;62.85
21359;BME280;13506;50.852;20.632;2022-10-16T06:28:38;98660.38;;;22.10;55.76
21359;BME280;13506;50.852;20.632;2022-10-16T06:31:08;98668.72;;;22.67;53.57
21359;BME280;13506;50.852;20.632;2022-10-16T06:33:37;98671.34;;;23.69;53.39
21359;BME280;13506;50.852;20.632;2022-10-16T06:36:07;98673.16;;;24.98;48.96
21359;BME280;13506;50.852;20.632;2022-10-16T06:38:35;98669.56;;;25.53;46.03
21359;BME280;13506;50.852;20.632;2022-10-16T06:41:04;98671.38;;;25.76;46.16
21359;BME280;13506;50.852;20.632;2022-10-16T06:43:34;98671.16;;;25.63;46.07
21359;BME280;13506;50.852;20.632;2022-10-16T06:46:04;98671.44;;;25.13;46.39
21359;BME280;13506;50.852;20.632;2022-10-16T06:48:33;98673.88;;;24.92;46.83
21359;BME280;13506;50.852;20.632;2022-10-16T06:51:04;98690.00;;;23.77;48.66
21359;BME280;13506;50.852;20.632;2022-10-16T06:53:35;98688.13;;;23.69;49.79
21359;BME280;13506;50.852;20.632;2022-10-16T06:56:08;98701.72;;;23.74;49.48
21359;BME280;13506;50.852;20.632;2022-10-16T06:58:37;98695.19;;;23.36;50.17
21359;BME280;13506;50.852;20.632;2022-10-16T07:01:06;98708.03;;;22.72;52.48
21359;BME280;13506;50.852;20.632;2022-10-16T07:03:36;98707.72;;;23.09;52.13
21359;BME280;13506;50.852;20.632;2022-10-16T07:06:06;98718.06;;;23.21;51.88
21359;BME280;13506;50.852;20.632;2022-10-16T07:08:36;98719.66;;;23.13;51.91
21359;BME280;13506;50.852;20.632;2022-10-16T07:11:07;98718.88;;;22.87;52.38
21359;BME280;13506;50.852;20.632;2022-10-16T07:13:37;98726.44;;;22.82;52.81
21359;BME280;13506;50.852;20.632;2022-10-16T07:16:05;98736.25;;;22.55;53.54
21359;BME280;13506;50.852;20.632;2022-10-16T07:18:33;98724.59;;;22.48;54.09
21359;BME280;13506;50.852;20.632;2022-10-16T07:21:06;98725.00;;;22.35;54.98
21359;BME280;13506;50.852;20.632;2022-10-16T07:23:34;98733.38;;;22.04;55.10
21359;BME280;13506;50.852;20.632;2022-10-16T07:26:01;98719.91;;;21.98;55.08
21359;BME280;13506;50.852;20.632;2022-10-16T07:28:29;98718.69;;;21.74;55.89
21359;BME280;13506;50.852;20.632;2022-10-16T07:31:02;98725.75;;;21.65;56.82
21359;BME280;13506;50.852;20.632;2022-10-16T07:33:30;98715.75;;;21.31;57.76
21359;BME280;13506;50.852;20.632;2022-10-16T07:35:58;98721.47;;;21.54;57.08
21359;BME280;13506;50.852;20.632;2022-10-16T07:38:26;98720.28;;;21.49;57.01
21359;BME280;13506;50.852;20.632;2022-10-16T07:40:58;98730.16;;;20.91;59.26
21359;BME280;13506;50.852;20.632;2022-10-16T07:43:26;98733.72;;;20.63;60.09
21359;BME280;13506;50.852;20.632;2022-10-16T07:45:55;98743.31;;;20.64;60.17
21359;BME280;13506;50.852;20.632;2022-10-16T07:48:27;98736.91;;;20.57;60.54
21359;BME280;13506;50.852;20.632;2022-10-16T07:50:57;98734.47;;;20.26;61.58
21359;BME280;13506;50.852;20.632;2022-10-16T07:53:27;98742.81;;;20.11;62.51
21359;BME280;13506;50.852;20.632;2022-10-16T07:55:58;98743.66;;;19.92;63.91
21359;BME280;13506;50.852;20.632;2022-10-16T07:58:26;98745.03;;;20.06;64.01
21359;BME280;13506;50.852;20.632;2022-10-16T08:00:55;98733.91;;;20.22;63.74
21359;BME280;13506;50.852;20.632;2022-10-16T08:03:25;98745.03;;;20.26;64.08
21359;BME280;13506;50.852;20.632;2022-10-16T08:05:52;98746.53;;;20.48;63.13
21359;BME280;13506;50.852;20.632;2022-10-16T08:08:20;98742.72;;;20.80;61.48
21359;BME280;13506;50.852;20.632;2022-10-16T08:10:48;98757.63;;;20.71;61.49
21359;BME280;13506;50.852;20.632;2022-10-16T08:13:16;98761.69;;;20.56;62.05
21359;BME280;13506;50.852;20.632;2022-10-16T08:15:44;98765.31;;;20.64;62.14
21359;BME280;13506;50.852;20.632;2022-10-16T08:18:14;98766.25;;;20.73;61.70
21359;BME280;13506;50.852;20.632;2022-10-16T08:20:43;98759.88;;;20.56;62.58
21359;BME280;13506;50.852;20.632;2022-10-16T08:23:12;98772.00;;;20.39;63.00
21359;BME280;13506;50.852;20.632;2022-10-16T08:25:41;98773.81;;;20.39;63.64
21359;BME280;13506;50.852;20.632;2022-10-16T08:28:11;98770.88;;;20.51;63.27
21359;BME280;13506;50.852;20.632;2022-10-16T08:30:38;98782.84;;;20.46;63.84
21359;BME280;13506;50.852;20.632;2022-10-16T08:33:06;98778.25;;;20.28;64.57
21359;BME280;13506;50.852;20.632;2022-10-16T08:35:34;98779.91;;;20.29;64.29
21359;BME280;13506;50.852;20.632;2022-10-16T08:38:05;98778.66;;;20.33;64.36
21359;BME280;13506;50.852;20.632;2022-10-16T08:40:35;98787.59;;;20.13;65.35
21359;BME280;13506;50.852;20.632;2022-10-16T08:43:44;98777.00;;;19.93;66.64
21359;BME280;13506;50.852;20.632;2022-10-16T08:46:32;98785.22;;;20.10;65.90
21359;BME280;13506;50.852;20.632;2022-10-16T08:49:05;98783.13;;;20.04;65.97
21359;BME280;13506;50.852;20.632;2022-10-16T08:51:36;98777.28;;;20.10;65.55
21359;BME280;13506;50.852;20.632;2022-10-16T08:54:10;98775.34;;;20.22;65.84
21359;BME280;13506;50.852;20.632;2022-10-16T08:56:42;98776.44;;;20.00;66.55
21359;BME280;13506;50.852;20.632;2022-10-16T08:59:11;98771.16;;;20.00;66.73
21359;BME280;13506;50.852;20.632;2022-10-16T09:01:41;98771.47;;;20.26;66.10
21359;BME280;13506;50.852;20.632;2022-10-16T09:07:20;98758.94;;;20.94;64.05
21359;BME280;13506;50.852;20.632;2022-10-16T09:10:21;98751.09;;;21.12;62.56
21359;BME280;13506;50.852;20.632;2022-10-16T09:12:58;98756.72;;;21.00;62.86
21359;BME280;13506;50.852;20.632;2022-10-16T09:15:34;98758.94;;;21.60;62.74
21359;BME280;13506;50.852;20.632;2022-10-16T09:18:14;98766.78;;;21.97;60.16
21359;BME280;13506;50.852;20.632;2022-10-16T09:20:50;98773.06;;;22.32;58.88
21359;BME280;13506;50.852;20.632;2022-10-16T09:23:25;98774.41;;;22.36;57.69
21359;BME280;13506;50.852;20.632;2022-10-16T09:25:55;98771.16;;;22.24;57.47
21359;BME280;13506;50.852;20.632;2022-10-16T09:28:23;98770.41;;;22.14;57.73
21359;BME280;13506;50.852;20.632;2022-10-16T09:30:51;98779.78;;;22.26;58.55
21359;BME280;13506;50.852;20.632;2022-10-16T09:33:23;98779.09;;;22.06;57.87
21359;BME280;13506;50.852;20.632;2022-10-16T09:35:53;98769.94;;;22.01;57.88
21359;BME280;13506;50.852;20.632;2022-10-16T09:38:24;98776.16;;;21.91;58.31
21359;BME280;13506;50.852;20.632;2022-10-16T09:40:54;98775.53;;;21.98;58.68
21359;BME280;13506;50.852;20.632;2022-10-16T09:43:26;98788.75;;;22.25;57.81
21359;BME280;13506;50.852;20.632;2022-10-16T09:46:00;98774.22;;;22.20;57.32
21359;BME280;13506;50.852;20.632;2022-10-16T09:48:35;98770.91;;;22.17;57.23
21359;BME280;13506;50.852;20.632;2022-10-16T09:51:13;98784.41;;;21.61;59.47
21359;BME280;13506;50.852;20.632;2022-10-16T09:53:46;98785.50;;;21.68;59.89
21359;BME280;13506;50.852;20.632;2022-10-16T09:56:24;98786.03;;;21.71;59.75
21359;BME280;13506;50.852;20.632;2022-10-16T09:58:53;98777.41;;;21.69;59.32
21359;BME280;13506;50.852;20.632;2022-10-16T10:01:24;98781.22;;;21.85;59.52
21359;BME280;13506;50.852;20.632;2022-10-16T10:03:57;98781.00;;;22.14;59.14
21359;BME280;13506;50.852;20.632;2022-10-16T10:06:30;98783.63;;;22.50;57.97
21359;BME280;13506;50.852;20.632;2022-10-16T10:09:05;98787.66;;;22.80;56.33
21359;BME280;13506;50.852;20.632;2022-10-16T10:11:50;98788.81;;;22.86;55.83
21359;BME280;13506;50.852;20.632;2022-10-16T10:14:30;98795.44;;;22.82;55.80
21359;BME280;13506;50.852;20.632;2022-10-16T10:17:14;98776.00;;;22.99;55.94
21359;BME280;13506;50.852;20.632;2022-10-16T10:19:49;98783.53;;;22.86;55.67
21359;BME280;13506;50.852;20.632;2022-10-16T10:22:24;98803.22;;;23.01;54.56
21359;BME280;13506;50.852;20.632;2022-10-16T10:25:12;98780.25;;;23.18;54.51
21359;BME280;13506;50.852;20.632;2022-10-16T10:28:06;98777.69;;;23.43;54.51
21359;BME280;13506;50.852;20.632;2022-10-16T10:30:44;98784.22;;;23.56;53.49
21359;BME280;13506;50.852;20.632;2022-10-16T10:33:25;98788.25;;;23.69;53.41
21359;BME280;13506;50.852;20.632;2022-10-16T10:36:05;98780.34;;;23.77;52.79
21359;BME280;13506;50.852;20.632;2022-10-16T10:38:45;98783.84;;;23.51;53.61
21359;BME280;13506;50.852;20.632;2022-10-16T10:44:35;98780.91;;;23.54;53.30
21359;BME280;13506;50.852;20.632;2022-10-16T10:47:18;98777.88;;;23.49;53.26
21359;BME280;13506;50.852;20.632;2022-10-16T10:50:02;98777.59;;;23.61;53.91
21359;BME280;13506;50.852;20.632;2022-10-16T10:52:43;98780.16;;;23.78;53.03
21359;BME280;13506;50.852;20.632;2022-10-16T10:55:22;98769.72;;;23.93;52.50
21359;BME280;13506;50.852;20.632;2022-10-16T10:58:27;98779.69;;;24.00;51.72
21359;BME280;13506;50.852;20.632;2022-10-16T11:01:04;98769.72;;;24.10;51.89
21359;BME280;13506;50.852;20.632;2022-10-16T11:04:03;98772.72;;;23.90;51.80
21359;BME280;13506;50.852;20.632;2022-10-16T11:06:35;98761.25;;;24.14;52.06
21359;BME280;13506;50.852;20.632;2022-10-16T11:09:12;98764.09;;;24.29;51.98
21359;BME280;13506;50.852;20.632;2022-10-16T11:11:47;98760.75;;;24.44;51.67
21359;BME280;13506;50.852;20.632;2022-10-16T11:14:21;98753.78;;;24.26;52.06
21359;BME280;13506;50.852;20.632;2022-10-16T11:16:58;98762.44;;;24.20;52.09
21359;BME280;13506;50.852;20.632;2022-10-16T11:19:36;98760.09;;;24.01;52.44
21359;BME280;13506;50.852;20.632;2022-10-16T11:22:14;98765.88;;;23.80;53.17
21359;BME280;13506;50.852;20.632;2022-10-16T11:24:48;98768.78;;;23.68;54.07
21359;BME280;13506;50.852;20.632;2022-10-16T11:27:26;98754.88;;;23.74;54.16
21359;BME280;13506;50.852;20.632;2022-10-16T11:29:58;98756.69;;;23.66;54.46
21359;BME280;13506;50.852;20.632;2022-10-16T11:32:35;98754.03;;;23.74;54.23
21359;BME280;13506;50.852;20.632;2022-10-16T11:35:14;98749.53;;;23.58;54.35
21359;BME280;13506;50.852;20.632;2022-10-16T11:37:47;98776.91;;;23.50;54.71
21359;BME280;13506;50.852;20.632;2022-10-16T11:40:24;98746.00;;;23.49;54.33
21359;BME280;13506;50.852;20.632;2022-10-16T11:42:59;98758.06;;;23.27;55.31
21359;BME280;13506;50.852;20.632;2022-10-16T11:45:36;98741.31;;;23.27;55.74
21359;BME280;13506;50.852;20.632;2022-10-16T11:48:18;98756.22;;;23.28;55.61
21359;BME280;13506;50.852;20.632;2022-10-16T11:50:52;98757.03;;;22.94;56.49
21359;BME280;13506;50.852;20.632;2022-10-16T11:53:34;98751.25;;;23.25;55.85
21359;BME280;13506;50.852;20.632;2022-10-16T11:56:05;98769.72;;;23.43;55.34
21359;BME280;13506;50.852;20.632;2022-10-16T11:58:37;98765.94;;;23.53;55.22
21359;BME280;13506;50.852;20.632;2022-10-16T12:01:19;98774.88;;;23.44;55.24
21359;BME280;13506;50.852;20.632;2022-10-16T12:04:06;98770.91;;;23.48;55.63
21359;BME280;13506;50.852;20.632;2022-10-16T12:06:43;98768.59;;;23.45;55.80
21359;BME280;13506;50.852;20.632;2022-10-16T12:09:26;98776.03;;;23.42;55.67
21359;BME280;13506;50.852;20.632;2022-10-16T12:11:55;98778.31;;;23.36;55.86
21359;BME280;13506;50.852;20.632;2022-10-16T12:14:36;98769.84;;;23.25;55.89
21359;BME280;13506;50.852;20.632;2022-10-16T12:17:24;98783.16;;;23.33;55.82
21359;BME280;13506;50.852;20.632;2022-10-16T12:20:19;98781.34;;;23.42;55.86
21359;BME280;13506;50.852;20.632;2022-10-16T12:22:49;98778.25;;;23.54;55.91
21359;BME280;13506;50.852;20.632;2022-10-16T12:25:24;98766.72;;;23.80;55.59
21359;BME280;13506;50.852;20.632;2022-10-16T12:28:03;98770.91;;;24.07;55.01
21359;BME280;13506;50.852;20.632;2022-10-16T12:30:35;98765.91;;;24.21;53.92
21359;BME280;13506;50.852;20.632;2022-10-16T12:33:06;98769.41;;;24.29;53.85
21359;BME280;13506;50.852;20.632;2022-10-16T12:35:48;98767.75;;;24.36;53.64
21359;BME280;13506;50.852;20.632;2022-10-16T12:38:19;98781.06;;;24.36;53.31
21359;BME280;13506;50.852;20.632;2022-10-16T12:40:56;98770.06;;;24.15;53.66
21359;BME280;13506;50.852;20.632;2022-10-16T12:43:35;98769.72;;;24.10;53.43
21359;BME280;13506;50.852;20.632;2022-10-16T12:46:20;98774.38;;;24.00;53.93
21359;BME280;13506;50.852;20.632;2022-10-16T12:48:49;98775.19;;;23.84;53.95
21359;BME280;13506;50.852;20.632;2022-10-16T12:51:34;98772.63;;;23.66;54.72
21359;BME280;13506;50.852;20.632;2022-10-16T12:54:10;98780.34;;;23.43;55.50
21359;BME280;13506;50.852;20.632;2022-10-16T12:56:56;98781.44;;;23.24;56.23
21359;BME280;13506;50.852;20.632;2022-10-16T12:59:39;98779.75;;;23.14;56.22
21359;BME280;13506;50.852;20.632;2022-10-16T13:02:33;98774.75;;;23.11;56.82
21359;BME280;13506;50.852;20.632;2022-10-16T13:05:30;98787.44;;;23.00;57.37
21359;BME280;13506;50.852;20.632;2022-10-16T13:08:21;98788.53;;;23.15;57.09
21359;BME280;13506;50.852;20.632;2022-10-16T13:11:03;98774.97;;;23.00;57.67
21359;BME280;13506;50.852;20.632;2022-10-16T13:13:47;98770.09;;;23.13;57.20
21359;BME280;13506;50.852;20.632;2022-10-16T13:16:25;98774.81;;;23.28;56.39
21359;BME280;13506;50.852;20.632;2022-10-16T13:19:11;98775.78;;;23.19;56.49
21359;BME280;13506;50.852;20.632;2022-10-16T13:21:51;98770.78;;;23.15;56.76
21359;BME280;13506;50.852;20.632;2022-10-16T13:24:49;98779.41;;;23.17;56.83